Latest Coastal Weather Observations for Mornington Island Airport

IDQ60701

Issued at 7:12 pm EST Saturday 23 September 2017 (issued every 10 minutes, with the page automatically refreshed every 10 minutes)

About coastal observations | Map of coastal stations | Coastal observations for QLD | Marine services | Other Formats
Station Details ID: 029182 Name: MORNINGTON ISLAND AIRPORT Lat: -16.66 Lon: 139.17 Height: 9.52 m
Data from the previous 72 hours. | See also: Recent months at Mornington Island Airport
Date/Time
EST
Temp
°C
Wind Pressure Rain since
9am
mm
Weather Cloud Vis
km
Sea
Height
m
Swell
Dir  Spd
kts
Gust
kts
hPa Trend Height
m
Period
s
Dir
23/07:00pm 26.0 N 8 11 1011.9 - 0.0 - - - - - - -
23/06:30pm 26.3 N 10 12 1011.9 - 0.0 - - - - - - -
23/06:00pm 26.9 N 10 13 1011.8 - 0.0 - - - - - - -
23/05:30pm 27.6 NNW 12 15 1011.7 - 0.0 - - - - - - -
23/05:00pm 27.9 NNW 12 15 1011.6 - 0.0 - - - - - - -
23/04:30pm 29.1 NNW 11 14 1011.6 - 0.0 - - - - - - -
23/04:00pm 29.1 NNW 12 16 1011.5 - 0.0 - - - - - - -
23/03:30pm 29.3 NNW 13 16 1011.7 - 0.0 - - - - - - -
23/03:00pm 29.8 N 13 18 1012.0 - 0.0 - - - - - - -
23/02:30pm 29.6 N 15 19 1012.2 - 0.0 - - - - - - -
23/02:00pm 30.3 N 13 17 1012.6 - 0.0 - - - - - - -
23/01:30pm 31.6 N 14 19 1013.0 - 0.0 - - - - - - -
23/01:00pm 31.0 NNW 14 17 1013.3 - 0.0 - - - - - - -
23/12:30pm 31.4 NNW 12 17 1013.7 - 0.0 - - - - - - -
23/12:00pm 30.5 NNW 12 16 1014.1 - 0.0 - - - - - - -
23/11:30am 29.6 NW 11 13 1014.6 - 0.0 - - - - - - -
23/11:00am 30.2 N 10 15 1015.1 - 0.0 - - - - - - -
23/10:30am 29.4 N 11 14 1015.2 - 0.0 - - - - - - -
23/10:00am 28.7 N 10 14 1015.4 - 0.0 - - - - - - -
23/09:30am 28.4 N 8 11 1015.3 - 0.0 - - - - - - -
23/09:00am 28.3 NNW 9 12 1015.2 - 0.0 - - - - - - -
23/08:30am 26.7 NNW 9 11 1015.0 - 0.0 - - - - - - -
23/08:00am 26.2 N 9 12 1014.6 - 0.0 - - - - - - -
23/07:30am 24.7 ENE 4 5 1014.3 - 0.0 - - - - - - -
23/07:00am 24.0 N 3 4 1014.0 - 0.0 - - - - - - -
23/06:30am 24.1 NNW 7 9 1013.6 - 0.0 - - - - - - -
23/06:00am 24.2 N 6 9 1012.8 - 0.0 - - - - - - -
23/05:30am 24.5 W 7 10 1012.0 - 0.0 - - - - - - -
23/05:00am 24.3 WSW 6 9 1011.7 - 0.0 - - - - - - -
23/04:30am 24.4 W 7 9 1011.6 - 0.0 - - - - - - -
23/04:00am 24.5 W 7 10 1011.5 - 0.0 - - - - - - -
23/03:30am 24.5 W 7 10 1011.6 - 0.0 - - - - - - -
23/03:00am 24.7 W 10 13 1011.8 - 0.0 - - - - - - -
23/02:30am 24.7 W 9 12 1012.1 - 0.0 - - - - - - -
23/02:00am 24.8 WNW 10 12 1012.3 - 0.0 - - - - - - -
23/01:30am 24.7 WNW 10 12 1012.5 - 0.0 - - - - - - -
23/01:00am 24.8 NW 9 11 1012.8 - 0.0 - - - - - - -
23/12:30am 24.9 WNW 10 13 1013.1 - 0.0 - - - - - - -
23/12:00am 25.0 WNW 11 13 1013.4 - 0.0 - - - - - - -
 
Date/Time
EST
Temp
°C
Wind Pressure Rain since
9am
mm
Weather Cloud Vis
km
Sea
Height
m
Swell
Dir  Spd
kts
Gust
kts
hPa Trend Height
m
Period
s
Dir
22/11:30pm 25.0 NW 9 12 1013.7 - 0.0 - - - - - - -
22/11:00pm 25.1 NW 10 11 1013.9 - 0.0 - - - - - - -
22/10:30pm 25.2 NW 9 11 1013.8 - 0.0 - - - - - - -
22/10:00pm 25.3 NW 8 10 1013.9 - 0.0 - - - - - - -
22/09:30pm 25.4 NNW 9 10 1013.8 - 0.0 - - - - - - -
22/09:00pm 25.5 NNW 7 8 1013.8 - 0.0 - - - - - - -
22/08:30pm 25.6 NNW 7 10 1013.5 - 0.0 - - - - - - -
22/08:00pm 25.7 NNW 7 9 1013.0 - 0.0 - - - - - - -
22/07:30pm 25.8 N 7 11 1012.7 - 0.0 - - - - - - -
22/07:00pm 26.1 NNW 8 11 1012.6 - 0.0 - - - - - - -
22/06:30pm 26.5 N 9 11 1012.3 - 0.0 - - - - - - -
22/06:00pm 27.2 N 10 13 1012.1 - 0.0 - - - - - - -
22/05:30pm 27.5 N 11 15 1011.9 - 0.0 - - - - - - -
22/05:00pm 28.1 NNW 12 15 1011.9 - 0.0 - - - - - - -
22/04:30pm 28.5 N 12 16 1011.8 - 0.0 - - - - - - -
22/04:00pm 28.9 NW 13 16 1011.9 - 0.0 - - - - - - -
22/03:30pm 28.8 NW 14 17 1012.0 - 0.0 - - - - - - -
22/03:00pm 29.4 NW 14 16 1012.3 - 0.0 - - - - - - -
22/02:30pm 29.6 NNW 14 17 1012.7 - 0.0 - - - - - - -
22/02:00pm 30.8 NNW 12 17 1013.1 - 0.0 - - - - - - -
22/01:30pm 29.9 N 12 16 1013.6 - 0.0 - - - - - - -
22/01:00pm 29.9 NNW 15 19 1013.9 - 0.0 - - - - - - -
22/12:30pm 29.8 NNW 14 18 1014.2 - 0.0 - - - - - - -
22/12:00pm 29.2 NW 15 17 1014.5 - 0.0 - - - - - - -
22/11:30am 28.9 NW 14 17 1014.8 - 0.0 - - - - - - -
22/11:00am 28.7 NW 13 16 1015.2 - 0.0 - - - - - - -
22/10:30am 28.3 NW 12 15 1015.4 - 0.0 - - - - - - -
22/10:00am 28.4 N 8 11 1015.7 - 0.0 - - - - - - -
22/09:30am 26.8 NW 9 11 1015.6 - 0.0 - - - - - - -
22/09:00am 26.8 NNW 8 10 1015.4 - 0.0 - - - - - - -
22/08:30am 26.0 N 7 9 1015.2 - 0.0 - - - - - - -
22/08:00am 25.1 N 6 8 1014.8 - 0.0 - - - - - - -
22/07:30am 23.7 NNE 4 7 1014.4 - 0.0 - - - - - - -
22/07:00am 23.1 E 2 5 1014.2 - 0.0 - - - - - - -
22/06:30am 23.0 NE 4 6 1013.8 - 0.0 - - - - - - -
22/06:00am 23.4 NNW 6 11 1013.5 - 0.0 - - - - - - -
22/05:30am 23.7 NNW 9 17 1013.2 - 0.0 - - - - - - -
22/05:00am 23.9 W 7 9 1012.1 - 0.0 - - - - - - -
22/04:30am 23.9 W 8 11 1011.5 - 0.0 - - - - - - -
22/04:00am 23.6 WSW 8 11 1011.4 - 0.0 - - - - - - -
22/03:30am 24.0 W 10 14 1011.5 - 0.0 - - - - - - -
22/03:00am 24.3 WSW 7 10 1011.5 - 0.0 - - - - - - -
22/02:30am 24.3 WSW 8 11 1011.8 - 0.0 - - - - - - -
22/02:00am 24.5 WSW 7 10 1012.0 - 0.0 - - - - - - -
22/01:30am 24.6 WSW 8 12 1012.1 - 0.0 - - - - - - -
22/01:00am 24.5 WSW 7 11 1012.3 - 0.0 - - - - - - -
22/12:30am 24.6 W 8 11 1012.3 - 0.0 - - - - - - -
22/12:00am 24.7 W 8 12 1012.5 - 0.0 - - - - - - -
 
Date/Time
EST
Temp
°C
Wind Pressure Rain since
9am
mm
Weather Cloud Vis
km
Sea
Height
m
Swell
Dir  Spd
kts
Gust
kts
hPa Trend Height
m
Period
s
Dir
21/11:30pm 24.8 W 10 12 1012.6 - 0.0 - - - - - - -
21/11:00pm 24.9 W 7 9 1012.8 - 0.0 - - - - - - -
21/10:30pm 25.0 WNW 6 7 1012.9 - 0.0 - - - - - - -
21/10:00pm 25.0 NW 7 8 1012.6 - 0.0 - - - - - - -
21/09:30pm 25.1 NW 6 8 1012.6 - 0.0 - - - - - - -
21/09:00pm 25.2 N 7 10 1012.2 - 0.0 - - - - - - -
21/08:30pm 25.3 N 7 10 1012.0 - 0.0 - - - - - - -
21/08:00pm 25.5 N 8 10 1011.7 - 0.0 - - - - - - -
21/07:30pm 25.6 NNE 8 12 1011.4 - 0.0 - - - - - - -
21/07:00pm 25.9 NNE 9 12 1011.3 - 0.0 - - - - - - -
21/06:30pm 26.4 N 10 14 1011.1 - 0.0 - - - - - - -
21/06:00pm 27.3 N 12 17 1010.9 - 0.0 - - - - - - -
21/05:30pm 28.1 N 13 17 1010.7 - 0.0 - - - - - - -
21/05:00pm 28.5 N 13 18 1010.7 - 0.0 - - - - - - -
21/04:30pm 28.9 N 13 18 1010.8 - 0.0 - - - - - - -
21/04:00pm 29.5 N 11 15 1010.9 - 0.0 - - - - - - -
21/03:30pm 29.1 N 11 15 1011.0 - 0.0 - - - - - - -
21/03:00pm 29.9 NNW 12 15 1011.4 - 0.0 - - - - - - -
21/02:30pm 29.9 NNW 13 16 1011.7 - 0.0 - - - - - - -
21/02:00pm 30.1 NW 13 16 1012.0 - 0.0 - - - - - - -
21/01:30pm 29.2 WNW 11 14 1012.5 - 0.0 - - - - - - -
21/01:00pm 29.3 WNW 9 11 1013.0 - 0.0 - - - - - - -
21/12:30pm 29.0 NW 10 12 1013.4 - 0.0 - - - - - - -
21/12:00pm 28.3 NW 11 14 1014.0 - 0.0 - - - - - - -
21/11:30am 29.3 WNW 7 13 1014.3 - 0.0 - - - - - - -
21/11:00am 30.9 SSE 8 12 1014.6 - 0.0 - - - - - - -
21/10:30am 30.1 SSE 7 12 1014.8 - 0.0 - - - - - - -
21/10:00am 29.8 SSE 8 11 1015.0 - 0.0 - - - - - - -
21/09:30am 29.6 S 7 11 1015.0 - 0.0 - - - - - - -
21/09:00am 28.8 ENE 8 11 1014.7 - 0.0 - - - - - - -
21/08:30am 27.2 ESE 6 8 1014.6 - 0.0 - - - - - - -
21/08:00am 24.4 NE 7 9 1014.5 - 0.0 - - - - - - -
21/07:30am 23.5 NE 10 16 1013.8 - 0.0 - - - - - - -
21/07:00am 21.7 S 2 3 1012.8 - 0.0 - - - - - - -
21/06:30am 21.6 S 3 4 1012.4 - 0.0 - - - - - - -
21/06:00am 21.7 S 2 4 1012.0 - 0.0 - - - - - - -
21/05:30am 22.1 SW 2 3 1011.8 - 0.0 - - - - - - -
21/05:00am 22.5 SSW 4 6 1011.5 - 0.0 - - - - - - -
21/04:30am 22.8 SW 3 5 1011.5 - 0.0 - - - - - - -
21/04:00am 23.3 SW 2 4 1011.5 - 0.0 - - - - - - -
21/03:30am 23.5 SW 3 5 1011.6 - 0.0 - - - - - - -
21/03:00am 24.0 SW 5 8 1011.6 - 0.0 - - - - - - -
21/02:30am 24.1 WSW 6 10 1011.7 - 0.0 - - - - - - -
21/02:00am 24.2 WSW 7 11 1011.9 - 0.0 - - - - - - -
21/01:30am 24.3 WSW 8 11 1012.0 - 0.0 - - - - - - -
21/01:00am 24.3 WSW 7 10 1012.2 - 0.0 - - - - - - -
21/12:30am 24.4 WSW 6 9 1012.4 - 0.0 - - - - - - -
21/12:00am 24.4 W 7 8 1012.7 - 0.0 - - - - - - -
 
Date/Time
EST
Temp
°C
Wind Pressure Rain since
9am
mm
Weather Cloud Vis
km
Sea
Height
m
Swell
Dir  Spd
kts
Gust
kts
hPa Trend Height
m
Period
s
Dir
20/11:30pm 24.6 WNW 6 8 1012.9 - 0.0 - - - - - - -
20/11:00pm 24.7 WNW 6 7 1013.1 - 0.0 - - - - - - -
20/10:30pm 24.9 WNW 6 7 1013.3 - 0.0 - - - - - - -
20/10:00pm 24.9 NW 7 8 1013.3 - 0.0 - - - - - - -
20/09:30pm 25.0 NW 7 8 1013.2 - 0.0 - - - - - - -
20/09:00pm 24.8 NNW 5 7 1013.1 - 0.0 - - - - - - -
20/08:30pm 24.9 NNW 5 7 1012.9 - 0.0 - - - - - - -
20/08:00pm 25.2 NNW 5 6 1012.8 - 0.0 - - - - - - -
20/07:30pm 25.3 NNW 5 6 1012.7 - 0.0 - - - - - - -

Other Formats:

Comma delimited format used in spreadsheet applications
http://www.bom.gov.au/fwo/IDQ60701/IDQ60701.94254.axf

JavaScript Object Notation format (JSON) in row-major order
http://www.bom.gov.au/fwo/IDQ60701/IDQ60701.94254.json